Time;durP1;ratioP1;P1;durP2;ratioP2;P2;SDS_P1;SDS_P2;PMS_P1;PMS_P2;Temp;Humidity;BMP_temperature;BMP_pressure;BME280_temperature;BME280_humidity;BME280_pressure;Samples;Min_cycle;Max_cycle;Signal;HPM_P1;HPM_P2
2022/08/23 00:01:09;;;;;;;32.78;9.85;;;;;;;19.58;71.61;101329.50;5021707;28;20033;-75
2022/08/23 00:03:34;;;;;;;27.88;10.57;;;;;;;19.60;72.18;101332.03;5025119;28;20400;-75
2022/08/23 00:06:00;;;;;;;31.38;10.93;;;;;;;19.57;71.97;101321.56;5025018;28;20048;-74
2022/08/23 00:08:26;;;;;;;36.80;10.70;;;;;;;19.55;72.19;101327.25;5014322;28;20026;-75
2022/08/23 00:10:51;;;;;;;23.80;10.02;;;;;;;19.55;72.16;101323.69;5010477;28;20459;-76
2022/08/23 00:13:16;;;;;;;24.95;10.25;;;;;;;19.55;72.39;101329.97;5010504;28;20034;-75
2022/08/23 00:15:42;;;;;;;35.03;10.20;;;;;;;19.56;72.10;101328.06;5010782;28;20022;-75
2022/08/23 00:18:07;;;;;;;33.40;11.02;;;;;;;19.56;71.93;101325.34;5011456;28;20112;-77
2022/08/23 00:20:32;;;;;;;33.35;10.88;;;;;;;19.51;72.07;101321.41;5010794;28;20038;-76
2022/08/23 00:22:58;;;;;;;25.83;10.10;;;;;;;19.49;72.32;101317.25;5010775;28;20048;-76
2022/08/23 00:25:23;;;;;;;24.05;9.70;;;;;;;19.50;72.70;101314.28;4994155;28;20025;-76
2022/08/23 00:27:49;;;;;;;30.35;11.32;;;;;;;19.49;72.98;101318.09;5012138;28;20489;-75
2022/08/23 00:30:14;;;;;;;31.02;10.20;;;;;;;19.46;73.28;101313.09;5014664;28;20052;-75
2022/08/23 00:32:40;;;;;;;21.83;9.80;;;;;;;19.47;73.97;101317.47;5023895;28;20026;-76
2022/08/23 00:35:07;;;;;;;28.10;9.75;;;;;;;19.51;73.97;101313.22;5023899;28;20050;-76
2022/08/23 00:37:33;;;;;;;31.35;10.50;;;;;;;19.56;73.57;101314.41;5010832;28;20034;-75
2022/08/23 00:39:59;;;;;;;25.92;9.55;;;;;;;19.56;73.72;101319.88;5029203;28;20051;-77
2022/08/23 00:48:14;;;;;;;38.72;10.18;;;;;;;19.62;72.99;101314.34;5003524;28;20040;-76
2022/08/23 00:50:44;;;;;;;28.85;9.95;;;;;;;19.66;72.32;101314.72;4995352;28;20029;-76
2022/08/23 00:53:19;;;;;;;34.08;10.70;;;;;;;19.64;72.50;101306.78;4996329;28;20429;-76
2022/08/23 00:55:46;;;;;;;32.65;10.85;;;;;;;19.65;72.32;101308.41;5031553;28;20382;-75
2022/08/23 00:58:13;;;;;;;29.25;9.98;;;;;;;19.64;72.41;101312.22;5003111;28;20033;-76
2022/08/23 01:00:38;;;;;;;31.30;9.60;;;;;;;19.65;72.40;101307.59;5006045;28;20133;-76
2022/08/23 01:03:07;;;;;;;22.35;10.20;;;;;;;19.67;71.97;101305.50;5011516;28;20177;-75
2022/08/23 01:05:42;;;;;;;24.73;9.57;;;;;;;19.64;71.65;101305.91;5014105;28;20104;-75
2022/08/23 01:08:07;;;;;;;36.75;11.60;;;;;;;19.62;71.94;101303.44;5010240;28;20491;-77
2022/08/23 01:10:40;;;;;;;31.90;11.05;;;;;;;19.64;71.96;101311.38;4993984;28;20025;-76
2022/08/23 01:13:10;;;;;;;30.85;10.55;;;;;;;19.67;72.10;101311.78;5012011;28;20017;-74
2022/08/23 01:15:40;;;;;;;25.75;9.43;;;;;;;19.74;72.20;101317.16;4999961;28;20065;-74
2022/08/23 01:18:08;;;;;;;24.83;9.25;;;;;;;19.78;71.90;101312.06;4995098;28;20030;-74
2022/08/23 01:20:50;;;;;;;32.90;9.98;;;;;;;19.77;71.76;101311.22;5009566;28;20528;-75
2022/08/23 01:23:27;;;;;;;28.42;10.90;;;;;;;19.80;71.77;101316.25;4993799;28;20165;-75
2022/08/23 01:25:52;;;;;;;30.83;10.83;;;;;;;19.84;71.82;101311.97;5004274;28;20432;-75
2022/08/23 01:28:17;;;;;;;27.20;10.82;;;;;;;19.84;71.61;101316.59;4992072;28;20090;-76
2022/08/23 01:30:45;;;;;;;31.00;10.65;;;;;;;19.84;70.94;101314.69;4998481;28;20446;-76
2022/08/23 01:33:10;;;;;;;28.75;9.93;;;;;;;19.87;70.85;101307.94;4990659;28;20018;-76
2022/08/23 01:35:40;;;;;;;22.67;9.55;;;;;;;19.89;70.64;101309.38;5013123;28;20073;-76
2022/08/23 01:38:06;;;;;;;32.65;9.68;;;;;;;19.89;69.51;101303.91;5014649;28;20037;-76
2022/08/23 01:40:33;;;;;;;28.45;9.88;;;;;;;19.85;69.97;101302.72;5031490;28;21526;-76
2022/08/23 01:42:59;;;;;;;40.30;10.10;;;;;;;19.86;70.06;101311.75;5032289;28;20022;-75
2022/08/23 01:45:24;;;;;;;27.05;9.75;;;;;;;19.89;69.85;101309.38;5032729;28;20033;-76
2022/08/23 01:47:50;;;;;;;37.83;9.55;;;;;;;19.90;69.74;101308.28;5032209;28;20030;-76
2022/08/23 01:50:15;;;;;;;30.35;9.57;;;;;;;19.91;69.56;101311.88;5031739;28;20025;-74
2022/08/23 01:52:41;;;;;;;34.60;10.10;;;;;;;19.86;69.81;101295.34;5014991;28;20499;-74
2022/08/23 01:55:07;;;;;;;31.02;9.55;;;;;;;19.90;69.24;101293.81;5032447;28;20091;-75
2022/08/23 01:57:33;;;;;;;39.17;10.57;;;;;;;19.87;68.76;101299.75;5031669;28;20037;-74
2022/08/23 01:59:59;;;;;;;29.63;9.65;;;;;;;19.86;68.98;101293.44;5014239;28;20025;-75
2022/08/23 02:02:24;;;;;;;25.67;10.40;;;;;;;19.84;68.42;101295.56;5031291;28;20472;-76
2022/08/23 02:04:50;;;;;;;25.58;8.70;;;;;;;19.89;68.55;101297.63;5033236;28;20445;-74
2022/08/23 02:07:15;;;;;;;28.73;9.55;;;;;;;19.92;68.48;101289.78;5032454;28;20547;-75
2022/08/23 02:09:41;;;;;;;32.30;9.63;;;;;;;19.99;68.50;101294.34;5033330;28;20488;-74
2022/08/23 02:12:06;;;;;;;23.00;9.77;;;;;;;20.01;68.57;101292.19;5032173;28;20087;-74
2022/08/23 02:14:32;;;;;;;33.72;11.43;;;;;;;19.97;68.62;101293.72;5030654;28;20404;-74
2022/08/23 02:16:59;;;;;;;28.33;9.63;;;;;;;19.95;68.39;101296.69;5023796;28;20034;-75
2022/08/23 02:19:24;;;;;;;32.23;10.43;;;;;;;19.97;68.82;101293.72;5028960;28;20044;-75
2022/08/23 02:21:50;;;;;;;41.72;10.65;;;;;;;19.99;69.24;101297.88;5032485;28;20029;-77
2022/08/23 02:24:21;;;;;;;26.70;9.82;;;;;;;20.03;68.91;101299.06;5032261;28;20061;-76
2022/08/23 02:26:50;;;;;;;23.70;9.10;;;;;;;20.06;68.81;101295.03;5032381;28;20037;-76
2022/08/23 02:29:17;;;;;;;27.70;9.00;;;;;;;20.07;68.91;101300.28;5031190;28;20449;-75
2022/08/23 02:31:46;;;;;;;22.85;8.50;;;;;;;20.13;68.77;101306.72;5031643;28;20029;-76
2022/08/23 02:34:13;;;;;;;30.52;9.43;;;;;;;20.14;68.19;101305.63;5028609;28;20548;-76
2022/08/23 02:36:38;;;;;;;38.78;9.75;;;;;;;20.13;67.49;101298.50;5013980;28;20460;-76
2022/08/23 02:39:05;;;;;;;27.67;8.90;;;;;;;20.15;67.47;101302.66;5013858;28;20045;-76
2022/08/23 02:41:31;;;;;;;24.85;8.98;;;;;;;20.16;67.38;101306.22;5030493;28;20029;-76
2022/08/23 02:43:56;;;;;;;29.60;9.10;;;;;;;20.11;67.24;101306.94;5032949;28;20400;-76
2022/08/23 02:46:23;;;;;;;38.75;9.68;;;;;;;20.10;66.96;101308.00;5032098;28;20084;-76
2022/08/23 02:48:48;;;;;;;30.02;9.10;;;;;;;20.11;67.00;101306.94;5033223;28;20029;-76
2022/08/23 02:51:15;;;;;;;37.72;9.13;;;;;;;20.09;68.06;101308.22;5033288;28;20095;-77
2022/08/23 02:53:40;;;;;;;30.08;9.02;;;;;;;20.11;68.17;101317.84;5032033;28;20110;-73
2022/08/23 02:56:06;;;;;;;26.15;8.85;;;;;;;20.13;68.50;101310.25;5033199;28;20184;-76
2022/08/23 02:58:31;;;;;;;22.77;8.98;;;;;;;20.15;68.46;101320.97;5033032;28;20025;-75
2022/08/23 03:00:57;;;;;;;33.22;9.70;;;;;;;20.15;68.36;101321.81;5032656;28;20036;-74
2022/08/23 03:03:23;;;;;;;28.08;8.90;;;;;;;20.18;68.30;101317.78;5031485;28;20334;-75
2022/08/23 03:05:48;;;;;;;22.58;8.73;;;;;;;20.17;68.51;101327.88;5031591;28;20555;-75
2022/08/23 03:08:14;;;;;;;26.45;8.93;;;;;;;20.18;68.56;101317.78;5030486;28;20109;-75
2022/08/23 03:10:45;;;;;;;24.10;8.95;;;;;;;20.18;68.80;101324.06;5031525;28;20030;-75
2022/08/23 03:13:10;;;;;;;28.08;9.00;;;;;;;20.21;69.55;101316.47;5030225;28;20025;-75
2022/08/23 03:15:37;;;;;;;26.90;9.23;;;;;;;20.20;69.08;101325.75;5030587;28;20083;-75
2022/08/23 03:18:02;;;;;;;19.42;8.48;;;;;;;20.17;68.98;101322.41;5013399;28;20544;-74
2022/08/23 03:20:28;;;;;;;22.52;10.35;;;;;;;20.14;69.59;101319.28;5012827;28;20108;-74
2022/08/23 03:22:53;;;;;;;26.25;8.93;;;;;;;20.11;69.83;101322.50;5008424;28;20105;-74
2022/08/23 03:25:18;;;;;;;37.03;10.13;;;;;;;20.09;70.19;101321.88;5029892;28;20085;-74
2022/08/23 03:27:44;;;;;;;30.65;9.30;;;;;;;20.06;70.07;101322.38;5029233;28;20021;-75
2022/08/23 03:30:10;;;;;;;25.10;9.45;;;;;;;20.06;69.85;101316.91;5029758;28;20026;-75
2022/08/23 03:32:35;;;;;;;31.85;9.32;;;;;;;20.04;69.57;101321.78;5012658;28;20084;-75
2022/08/23 03:35:00;;;;;;;25.88;9.18;;;;;;;19.99;69.64;101316.19;5029804;28;20053;-75
2022/08/23 03:37:26;;;;;;;29.73;9.55;;;;;;;19.93;69.95;101312.47;5009691;28;20022;-75
2022/08/23 03:39:51;;;;;;;23.38;9.80;;;;;;;19.88;70.23;101310.44;5027275;28;20037;-75
2022/08/23 03:42:18;;;;;;;31.20;10.18;;;;;;;19.79;70.39;101320.03;5012005;28;20041;-75
2022/08/23 03:44:43;;;;;;;29.25;9.55;;;;;;;19.71;71.34;101312.97;5014590;28;20440;-74
2022/08/23 03:47:09;;;;;;;31.13;10.50;;;;;;;19.66;71.57;101321.03;5014250;28;20037;-75
2022/08/23 03:49:34;;;;;;;29.73;10.70;;;;;;;19.62;71.46;101319.81;5023274;28;20115;-76
2022/08/23 03:52:00;;;;;;;27.90;10.10;;;;;;;19.60;71.78;101337.47;5007317;28;20088;-75
2022/08/23 03:54:26;;;;;;;36.53;10.88;;;;;;;19.57;72.19;101329.75;5018131;28;20677;-75
2022/08/23 03:56:54;;;;;;;35.40;10.20;;;;;;;19.52;72.28;101325.81;5017530;28;20033;-75
2022/08/23 03:59:20;;;;;;;35.70;10.85;;;;;;;19.52;71.98;101336.72;5028466;28;20395;-74
2022/08/23 04:01:45;;;;;;;36.45;10.23;;;;;;;19.51;71.95;101340.53;5024646;28;20093;-75
2022/08/23 04:04:11;;;;;;;28.98;10.75;;;;;;;19.49;71.93;101337.19;5030251;28;20043;-75
2022/08/23 04:06:37;;;;;;;41.95;11.00;;;;;;;19.48;72.20;101335.53;5017109;28;20068;-74
2022/08/23 04:09:03;;;;;;;31.48;10.27;;;;;;;19.45;72.31;101341.44;5014222;28;20046;-75
2022/08/23 04:11:28;;;;;;;29.30;10.27;;;;;;;19.41;72.41;101334.78;5022681;28;20120;-75
2022/08/23 04:13:54;;;;;;;30.65;10.23;;;;;;;19.40;72.66;101332.25;5022993;28;20030;-75
2022/08/23 04:16:20;;;;;;;31.65;10.77;;;;;;;19.36;72.86;101337.34;5010779;28;20061;-75
2022/08/23 04:18:46;;;;;;;25.92;10.48;;;;;;;19.35;72.73;101337.56;4989759;28;20086;-76
2022/08/23 04:21:18;;;;;;;33.65;11.75;;;;;;;19.30;72.51;101338.28;5007848;28;21471;-74
2022/08/23 04:23:44;;;;;;;31.30;10.57;;;;;;;19.27;72.45;101345.03;4990717;28;20240;-74
2022/08/23 04:26:09;;;;;;;39.83;11.48;;;;;;;19.25;72.99;101343.59;5030669;28;20188;-75
2022/08/23 04:28:35;;;;;;;29.95;11.57;;;;;;;19.22;72.89;101342.13;5015307;28;20532;-75
2022/08/23 04:31:02;;;;;;;31.48;10.45;;;;;;;19.17;73.35;101346.59;5022008;28;20030;-75
2022/08/23 04:33:30;;;;;;;28.05;10.75;;;;;;;19.15;73.84;101340.53;5010298;28;20104;-74
2022/08/23 04:35:56;;;;;;;44.17;11.70;;;;;;;19.13;74.01;101343.50;5026094;28;20152;-75
2022/08/23 04:38:21;;;;;;;33.05;10.43;;;;;;;19.11;74.00;101331.13;5010928;28;20127;-75
2022/08/23 04:43:31;;;;;;;31.00;11.63;;;;;;;19.09;74.72;101331.38;5030575;28;20045;-74
2022/08/23 04:45:56;;;;;;;43.50;11.02;;;;;;;19.08;75.18;101332.41;5027780;28;20021;-75
2022/08/23 04:48:22;;;;;;;31.48;11.65;;;;;;;19.03;75.30;101335.81;5025210;28;20030;-74
2022/08/23 04:50:48;;;;;;;30.35;10.75;;;;;;;19.01;75.53;101342.56;5030333;28;20075;-74
2022/08/23 04:53:13;;;;;;;37.58;10.48;;;;;;;18.98;75.53;101343.00;5034386;28;20033;-77
2022/08/23 04:55:38;;;;;;;29.20;11.15;;;;;;;18.95;75.46;101354.38;5034526;28;20095;-75
2022/08/23 04:58:04;;;;;;;29.83;11.15;;;;;;;18.95;75.45;101360.66;5033640;28;20061;-75
2022/08/23 05:00:30;;;;;;;41.03;12.75;;;;;;;18.94;75.50;101361.72;5035417;28;20029;-74
2022/08/23 05:02:55;;;;;;;41.63;12.98;;;;;;;18.93;75.87;101362.81;5003736;28;20426;-76
2022/08/23 05:05:21;;;;;;;32.13;12.50;;;;;;;18.92;76.13;101363.84;5030766;28;20040;-75
2022/08/23 05:07:46;;;;;;;23.83;11.32;;;;;;;18.91;75.84;101356.72;5034152;28;20481;-74
2022/08/23 05:10:13;;;;;;;33.58;12.50;;;;;;;18.90;75.83;101365.94;5034236;28;20495;-77
2022/08/23 05:12:39;;;;;;;29.43;11.97;;;;;;;18.88;76.44;101350.88;5014283;28;20033;-77
2022/08/23 05:15:05;;;;;;;27.15;12.25;;;;;;;18.85;76.35;101357.59;5012541;28;20288;-76
2022/08/23 05:17:30;;;;;;;42.08;13.65;;;;;;;18.82;76.05;101358.06;5036874;28;20049;-79
2022/08/23 05:19:56;;;;;;;36.22;12.40;;;;;;;18.79;76.75;101369.44;5029445;28;20032;-78
2022/08/23 05:22:21;;;;;;;36.17;12.00;;;;;;;18.80;76.52;101369.22;5032044;28;20033;-78
2022/08/23 05:24:46;;;;;;;33.03;13.23;;;;;;;18.80;76.70;101373.81;5034007;28;20560;-77
2022/08/23 05:27:12;;;;;;;29.40;12.48;;;;;;;18.82;77.43;101375.25;5016669;28;20022;-79
2022/08/23 05:29:37;;;;;;;35.45;12.90;;;;;;;18.86;77.52;101376.50;5024663;28;20029;-79
2022/08/23 05:32:03;;;;;;;36.10;12.90;;;;;;;18.92;78.13;101374.75;5046457;28;20109;-79
2022/08/23 05:34:28;;;;;;;47.65;12.40;;;;;;;18.97;77.77;101380.38;5034066;28;20076;-78
2022/08/23 05:36:54;;;;;;;35.47;12.77;;;;;;;19.08;77.58;101373.34;5035588;28;20305;-78
2022/08/23 05:39:20;;;;;;;33.92;12.70;;;;;;;19.25;77.16;101379.88;5035654;28;20034;-77
2022/08/23 05:41:45;;;;;;;39.17;12.98;;;;;;;19.55;76.48;101383.75;5035917;28;20026;-77
2022/08/23 05:44:11;;;;;;;48.35;12.60;;;;;;;19.97;75.56;101381.97;5037584;28;20022;-78
2022/08/23 05:46:37;;;;;;;29.63;13.18;;;;;;;20.43;74.63;101388.66;5032726;28;20030;-78
2022/08/23 05:49:03;;;;;;;34.42;12.77;;;;;;;21.14;72.42;101389.56;5032719;28;20483;-78
2022/08/23 05:51:31;;;;;;;36.95;13.43;;;;;;;22.03;68.81;101389.25;5031096;28;20065;-78
2022/08/23 05:53:59;;;;;;;35.58;12.38;;;;;;;22.90;65.57;101401.75;5033169;28;20112;-78
2022/08/23 05:56:30;;;;;;;42.90;12.75;;;;;;;23.92;62.00;101394.13;5015854;28;20039;-78
2022/08/23 05:58:58;;;;;;;43.00;12.68;;;;;;;24.66;58.40;101401.75;5032916;28;20038;-78
2022/08/23 06:01:23;;;;;;;;;;;;;;;25.21;55.87;101405.22;5033092;28;20056;-77
2022/08/23 06:03:49;;;;;;;33.63;11.25;;;;;;;25.78;53.85;101398.03;5032872;28;19916;-77
2022/08/23 06:06:15;;;;;;;36.45;13.27;;;;;;;26.42;53.23;101396.81;5030518;28;20133;-78
2022/08/23 06:08:41;;;;;;;32.22;12.80;;;;;;;27.35;50.33;101404.78;5034631;28;20083;-78
2022/08/23 06:11:10;;;;;;;51.77;14.93;;;;;;;27.49;49.33;101398.63;5034517;28;20573;-78
2022/08/23 06:13:43;;;;;;;43.00;14.32;;;;;;;27.86;48.75;101400.16;5024900;28;20030;-78
2022/08/23 06:16:09;;;;;;;39.65;15.00;;;;;;;28.02;47.65;101394.28;5030987;28;20333;-78
2022/08/23 06:18:35;;;;;;;55.70;14.60;;;;;;;27.78;47.91;101405.16;5022432;28;20125;-78
2022/08/23 06:21:04;;;;;;;41.40;14.97;;;;;;;28.24;48.25;101404.09;5036292;28;20029;-78
2022/08/23 06:23:29;;;;;;;37.70;15.60;;;;;;;28.24;47.58;101398.56;5036365;28;20116;-78
2022/08/23 06:25:55;;;;;;;47.17;14.60;;;;;;;28.62;46.89;101399.69;5033863;28;20531;-78
2022/08/23 06:28:21;;;;;;;36.50;13.30;;;;;;;28.48;47.20;101404.22;5037524;28;20091;-78
2022/08/23 06:30:47;;;;;;;32.03;13.30;;;;;;;28.17;47.98;101400.81;5032368;28;20054;-77
2022/08/23 06:33:12;;;;;;;36.85;14.10;;;;;;;27.53;49.68;101400.56;5014827;28;20026;-77
2022/08/23 06:35:38;;;;;;;38.10;14.40;;;;;;;27.20;50.60;101407.59;5032521;28;20053;-78
2022/08/23 06:38:03;;;;;;;39.17;12.45;;;;;;;26.87;52.50;101401.53;5031797;28;20037;-77
2022/08/23 06:40:29;;;;;;;25.73;11.13;;;;;;;26.94;52.75;101395.72;5032172;28;20055;-78
2022/08/23 06:42:54;;;;;;;31.63;11.05;;;;;;;26.56;53.51;101406.22;5032073;28;20112;-77
2022/08/23 06:45:19;;;;;;;37.95;10.65;;;;;;;26.76;52.96;101399.88;5031800;28;20033;-76
2022/08/23 06:47:45;;;;;;;28.42;9.50;;;;;;;26.56;54.43;101402.66;5032685;28;20049;-77
2022/08/23 06:50:10;;;;;;;26.42;9.05;;;;;;;26.16;55.17;101405.06;5032543;28;20453;-78
2022/08/23 06:52:36;;;;;;;33.35;10.00;;;;;;;25.89;56.06;101402.50;5032273;28;20040;-79
2022/08/23 06:55:02;;;;;;;27.80;9.73;;;;;;;25.59;56.92;101401.28;5015358;28;20061;-78
2022/08/23 06:57:28;;;;;;;26.90;9.23;;;;;;;25.23;58.57;101413.22;5034719;28;20036;-78
2022/08/23 06:59:53;;;;;;;30.10;8.57;;;;;;;25.00;59.72;101404.22;5037254;28;20029;-77
2022/08/23 07:02:19;;;;;;;30.75;9.63;;;;;;;24.78;60.36;101407.09;5045678;28;20014;-78
2022/08/23 07:04:44;;;;;;;22.02;10.13;;;;;;;24.66;61.40;101406.44;5043204;28;20071;-78
2022/08/23 07:07:10;;;;;;;32.88;8.70;;;;;;;24.50;62.63;101410.97;5037885;28;20496;-77
2022/08/23 07:09:36;;;;;;;30.85;7.80;;;;;;;24.37;62.78;101411.38;5019918;28;20036;-77
2022/08/23 07:12:02;;;;;;;17.98;6.70;;;;;;;24.24;63.44;101407.94;5037446;28;20040;-77
2022/08/23 07:14:27;;;;;;;25.73;6.38;;;;;;;24.19;62.45;101415.31;5046313;28;20034;-78
2022/08/23 07:16:58;;;;;;;22.70;6.07;;;;;;;24.19;62.82;101418.06;5024987;28;20027;-77
2022/08/23 07:19:26;;;;;;;23.17;6.20;;;;;;;24.17;63.02;101418.34;5026724;28;20152;-77
2022/08/23 07:21:51;;;;;;;22.13;6.97;;;;;;;24.13;63.34;101411.69;5030854;28;20468;-76
2022/08/23 07:24:17;;;;;;;23.48;6.03;;;;;;;24.12;63.38;101412.78;5017468;28;20021;-77
2022/08/23 07:26:44;;;;;;;19.20;5.32;;;;;;;24.20;63.06;101415.06;5036022;28;20392;-76
2022/08/23 07:29:11;;;;;;;15.00;5.82;;;;;;;24.29;63.00;101416.25;5030985;28;20030;-76
2022/08/23 07:31:55;;;;;;;21.45;6.43;;;;;;;24.29;62.80;101423.69;5007692;28;20043;-76
2022/08/23 07:34:21;;;;;;;22.73;5.95;;;;;;;24.35;63.21;101424.56;5031253;28;20053;-76
2022/08/23 07:36:47;;;;;;;17.08;5.43;;;;;;;24.38;63.21;101426.78;5029527;28;20032;-76
2022/08/23 07:39:13;;;;;;;22.90;5.60;;;;;;;24.54;62.89;101423.13;5052413;28;20048;-77
2022/08/23 07:41:40;;;;;;;29.33;5.95;;;;;;;24.56;62.15;101426.44;5018064;28;20028;-77
2022/08/23 07:44:08;;;;;;;22.20;5.47;;;;;;;24.58;62.44;101429.75;5030229;28;20491;-77
2022/08/23 07:46:34;;;;;;;21.73;6.65;;;;;;;24.51;62.44;101429.13;5028548;28;20476;-77
2022/08/23 07:49:00;;;;;;;25.33;7.63;;;;;;;24.51;62.42;101438.25;5035640;28;20034;-78
2022/08/23 07:51:28;;;;;;;24.05;6.65;;;;;;;24.56;62.32;101437.44;5040080;28;20037;-78
2022/08/23 07:53:53;;;;;;;;;;;;;;;24.40;62.13;101436.44;5041081;28;20022;-76
2022/08/23 07:56:19;;;;;;;21.30;6.83;;;;;;;24.54;62.11;101442.41;5000461;28;19940;-76
2022/08/23 07:58:45;;;;;;;16.77;6.28;;;;;;;24.55;61.66;101441.28;5033371;28;20664;-77
2022/08/23 08:01:16;;;;;;;20.13;5.75;;;;;;;24.87;60.83;101443.22;5017178;28;20084;-76
2022/08/23 08:03:43;;;;;;;16.27;5.80;;;;;;;25.22;59.71;101444.59;5038417;28;20100;-76
2022/08/23 08:06:11;;;;;;;20.92;5.65;;;;;;;25.37;57.86;101452.97;5023620;28;20029;-76
2022/08/23 08:08:39;;;;;;;30.55;6.35;;;;;;;25.86;58.02;101455.47;5019002;28;20412;-77
2022/08/23 08:11:05;;;;;;;15.48;5.22;;;;;;;26.46;55.19;101459.50;5035384;28;20112;-76
2022/08/23 08:13:30;;;;;;;20.92;5.28;;;;;;;26.75;53.54;101467.25;5037049;28;20109;-76
2022/08/23 08:15:56;;;;;;;14.52;5.20;;;;;;;26.63;53.28;101463.94;5037768;28;20033;-76
2022/08/23 08:18:21;;;;;;;24.45;5.50;;;;;;;26.41;53.75;101473.28;5056464;28;20093;-77
2022/08/23 08:20:47;;;;;;;21.75;5.65;;;;;;;26.31;54.08;101466.91;5019933;28;20125;-77
2022/08/23 08:23:12;;;;;;;20.48;5.38;;;;;;;26.15;54.49;101469.63;5016061;28;20030;-78
2022/08/23 08:25:37;;;;;;;23.00;5.40;;;;;;;26.39;54.56;101474.66;5014193;28;20025;-78
2022/08/23 08:28:03;;;;;;;20.27;5.65;;;;;;;26.37;54.72;101472.16;5030981;28;20101;-78
2022/08/23 08:30:28;;;;;;;23.95;5.13;;;;;;;26.35;54.98;101465.25;5031030;28;20037;-76
2022/08/23 08:32:54;;;;;;;18.60;5.25;;;;;;;26.02;56.11;101470.97;5015605;28;20473;-75
2022/08/23 08:35:19;;;;;;;13.95;4.95;;;;;;;25.87;55.80;101468.13;5036486;28;20056;-75
2022/08/23 08:37:44;;;;;;;22.48;5.38;;;;;;;25.86;56.78;101468.38;4999401;28;20030;-77
2022/08/23 08:40:10;;;;;;;15.25;4.50;;;;;;;25.96;56.69;101471.19;5023184;28;20033;-76
2022/08/23 08:42:57;;;;;;;22.08;5.80;;;;;;;25.76;56.38;101474.69;5018218;28;20110;-77
2022/08/23 08:45:23;;;;;;;;;;;;;;;25.59;57.48;101467.44;5014916;28;20147;-77
2022/08/23 08:47:53;;;;;;;25.17;5.35;;;;;;;25.36;58.12;101473.34;5030881;28;19924;-76
2022/08/23 08:50:31;;;;;;;15.63;4.97;;;;;;;25.45;58.31;101474.50;5022822;28;20385;-76
2022/08/23 08:53:03;;;;;;;19.83;5.72;;;;;;;25.48;57.51;101478.66;4994097;28;20049;-77
2022/08/23 08:55:32;;;;;;;24.77;5.07;;;;;;;25.55;58.13;101471.00;5004546;28;20034;-77
2022/08/23 08:57:58;;;;;;;23.55;5.82;;;;;;;25.56;56.68;101476.22;5012168;28;20439;-77
2022/08/23 09:00:24;;;;;;;28.20;6.43;;;;;;;25.51;57.62;101470.66;5018597;28;20036;-78
2022/08/23 09:02:49;;;;;;;22.17;5.75;;;;;;;25.48;56.96;101475.91;5031525;28;20288;-78
2022/08/23 09:05:19;;;;;;;18.92;5.72;;;;;;;25.73;57.57;101475.22;5032140;28;20033;-78
2022/08/23 09:08:04;;;;;;;20.90;5.30;;;;;;;25.71;57.47;101482.91;5033540;28;20040;-78
2022/08/23 09:10:47;;;;;;;13.30;4.70;;;;;;;25.69;57.66;101483.19;5033168;28;20056;-78
2022/08/23 09:13:24;;;;;;;25.80;5.55;;;;;;;25.83;55.85;101483.53;5030741;28;20025;-78
2022/08/23 09:16:04;;;;;;;;;;;;;;;25.84;56.81;101490.75;5032891;28;20033;-79
2022/08/23 09:18:33;;;;;;;11.15;4.13;;;;;;;26.29;56.08;101480.97;5011420;28;20071;-79
2022/08/23 09:21:00;;;;;;;13.68;4.03;;;;;;;26.90;52.93;101483.84;5026815;28;20037;-77
2022/08/23 09:23:31;;;;;;;10.35;3.10;;;;;;;27.51;50.60;101487.66;5030619;28;20495;-77
2022/08/23 09:25:59;;;;;;;6.47;2.63;;;;;;;27.88;48.89;101492.00;5013614;28;20392;-77
2022/08/23 09:28:27;;;;;;;17.63;3.67;;;;;;;28.52;48.34;101493.09;5030106;28;20034;-78
2022/08/23 09:30:55;;;;;;;22.48;3.97;;;;;;;28.75;49.37;101489.59;4994474;28;20141;-79
2022/08/23 09:33:31;;;;;;;7.07;2.60;;;;;;;28.53;46.53;101495.56;5023669;28;20025;-79
2022/08/23 09:36:05;;;;;;;5.95;1.90;;;;;;;28.78;45.72;101493.72;5014394;28;20623;-78
2022/08/23 09:38:31;;;;;;;10.48;2.20;;;;;;;28.77;47.08;101498.44;5029037;28;20087;-76
2022/08/23 09:40:57;;;;;;;9.43;1.97;;;;;;;28.87;45.43;101494.78;5008914;28;20041;-77
2022/08/23 09:43:42;;;;;;;7.97;2.00;;;;;;;29.30;45.06;101486.63;5016207;28;20104;-77
2022/08/23 09:46:08;;;;;;;10.82;2.78;;;;;;;30.16;43.49;101489.56;5028663;28;20385;-77
2022/08/23 09:48:43;;;;;;;6.40;1.87;;;;;;;29.51;43.78;101488.06;5034605;28;20030;-77
2022/08/23 09:51:18;;;;;;;11.25;2.45;;;;;;;29.34;44.03;101486.91;5000421;28;20061;-77
2022/08/23 09:53:49;;;;;;;11.30;2.30;;;;;;;29.30;44.11;101492.19;5014164;28;20476;-77
2022/08/23 09:56:18;;;;;;;10.25;2.50;;;;;;;29.43;44.56;101490.66;5014974;28;20064;-77
2022/08/23 09:58:45;;;;;;;13.32;2.33;;;;;;;29.32;44.89;101489.97;5031810;28;20033;-78
2022/08/23 10:01:29;;;;;;;11.35;2.13;;;;;;;29.49;44.38;101479.25;4995409;28;20036;-77
2022/08/23 10:04:14;;;;;;;24.02;3.05;;;;;;;29.03;44.64;101474.13;5002043;28;20026;-77
2022/08/23 10:06:42;;;;;;;19.80;3.60;;;;;;;28.52;45.58;101477.31;4998087;28;20037;-76
2022/08/23 10:09:09;;;;;;;8.18;2.67;;;;;;;28.42;45.73;101485.66;5015535;28;20061;-76
2022/08/23 10:11:39;;;;;;;19.08;3.00;;;;;;;28.35;45.13;101476.81;5016964;28;20033;-77
2022/08/23 10:14:04;;;;;;;13.43;3.50;;;;;;;27.57;46.80;101479.09;5024263;28;20061;-77
2022/08/23 10:16:39;;;;;;;12.23;3.80;;;;;;;26.90;48.21;101472.78;5028052;28;20174;-77
2022/08/23 10:19:35;;;;;;;15.35;2.80;;;;;;;27.21;49.21;101472.81;5014626;28;20025;-78
2022/08/23 10:22:25;;;;;;;16.73;3.13;;;;;;;28.17;46.92;101476.38;5032981;28;20025;-77
2022/08/23 10:25:11;;;;;;;17.35;3.35;;;;;;;28.53;45.24;101467.88;5017587;28;20502;-78
2022/08/23 10:30:36;;;;;;;12.27;3.80;;;;;;;28.12;47.13;101473.66;5031368;28;20040;-78
2022/08/23 10:33:08;;;;;;;13.00;2.80;;;;;;;28.24;46.89;101478.81;5007011;28;20041;-79
2022/08/23 10:35:47;;;;;;;14.63;2.92;;;;;;;28.73;45.48;101471.63;5033203;28;20049;-79
2022/08/23 10:38:25;;;;;;;9.75;2.70;;;;;;;28.54;45.23;101475.09;5035946;28;20044;-79
2022/08/23 10:41:12;;;;;;;14.23;3.03;;;;;;;28.65;45.26;101481.38;5019267;28;20033;-79
2022/08/23 10:43:44;;;;;;;15.73;3.90;;;;;;;28.87;44.64;101470.66;5032960;28;20065;-81
2022/08/23 10:46:10;;;;;;;9.50;2.75;;;;;;;29.30;44.63;101472.78;5017341;28;20033;-79
2022/08/23 10:49:03;;;;;;;9.57;2.83;;;;;;;29.21;45.34;101474.56;5033354;28;20051;-77
2022/08/23 10:51:40;;;;;;;11.77;3.00;;;;;;;29.69;44.31;101474.59;5030078;28;20107;-78
2022/08/23 10:54:11;;;;;;;11.85;2.78;;;;;;;30.03;43.19;101476.41;5036406;28;20093;-78
2022/08/23 10:56:37;;;;;;;13.85;3.80;;;;;;;29.01;44.23;101469.97;5027314;28;20081;-78
2022/08/23 10:59:05;;;;;;;10.00;3.50;;;;;;;28.63;45.37;101467.81;5030460;28;20366;-78
2022/08/23 11:01:44;;;;;;;13.52;3.33;;;;;;;28.63;46.19;101458.69;5030167;28;20034;-78
2022/08/23 11:04:26;;;;;;;12.15;3.45;;;;;;;29.67;43.72;101468.53;5013708;28;20049;-79
2022/08/23 11:06:54;;;;;;;10.48;3.20;;;;;;;29.48;44.09;101472.03;5035040;28;20033;-78
2022/08/23 11:09:19;;;;;;;16.40;3.95;;;;;;;28.92;43.81;101474.50;5024359;28;20041;-78
2022/08/23 11:12:16;;;;;;;18.70;3.53;;;;;;;28.52;45.09;101466.22;5024293;28;20401;-77
2022/08/23 11:14:47;;;;;;;12.85;3.67;;;;;;;29.17;44.89;101465.16;5019950;28;20319;-77
2022/08/23 11:17:29;;;;;;;15.57;3.90;;;;;;;29.18;43.86;101475.13;5009180;28;20032;-78
2022/08/23 11:20:07;;;;;;;23.58;4.05;;;;;;;28.91;44.78;101483.94;5015066;28;20507;-77
2022/08/23 11:22:55;;;;;;;17.67;4.85;;;;;;;29.72;44.56;101485.09;5015339;28;20029;-78
2022/08/23 11:25:20;;;;;;;15.27;4.57;;;;;;;30.76;43.01;101478.69;5033091;28;20029;-78
2022/08/23 11:27:45;;;;;;;12.63;4.53;;;;;;;31.45;41.49;101486.41;5032445;28;20041;-78
2022/08/23 11:30:30;;;;;;;14.17;3.80;;;;;;;31.43;40.64;101491.47;5031694;28;20049;-78